Time;durP1;ratioP1;P1;durP2;ratioP2;P2;SDS_P1;SDS_P2;PMS_P1;PMS_P2;Temp;Humidity;BMP_temperature;BMP_pressure;BME280_temperature;BME280_humidity;BME280_pressure;Samples;Min_cycle;Max_cycle;Signal;HPM_P1;HPM_P2
2023/07/27 00:00:47;;;;;;;1999.90;999.90;;;11.30;99.90;;;;;;5042099;28;20486;-68
2023/07/27 00:03:13;;;;;;;1999.90;999.90;;;11.30;99.90;;;;;;5047600;28;20037;-68
2023/07/27 00:05:39;;;;;;;1999.90;999.90;;;11.30;99.90;;;;;;5021773;28;20041;-68
2023/07/27 00:08:04;;;;;;;1999.90;999.90;;;11.40;99.90;;;;;;5021516;28;20042;-68
2023/07/27 00:10:30;;;;;;;1999.90;999.90;;;11.40;99.90;;;;;;5051738;28;20045;-68
2023/07/27 00:12:56;;;;;;;1999.90;999.90;;;11.40;99.90;;;;;;5042906;28;20044;-68
2023/07/27 00:15:21;;;;;;;1999.90;999.90;;;11.40;99.90;;;;;;5035472;28;20068;-69
2023/07/27 00:17:47;;;;;;;1999.90;999.90;;;11.40;99.90;;;;;;5045834;28;20045;-68
2023/07/27 00:20:13;;;;;;;1999.90;999.90;;;11.50;99.90;;;;;;5045393;28;20052;-68
2023/07/27 00:22:38;;;;;;;1999.90;999.90;;;11.50;99.90;;;;;;5030003;28;20052;-68
2023/07/27 00:25:04;;;;;;;1999.90;999.90;;;11.50;99.90;;;;;;5048104;28;20076;-68
2023/07/27 00:27:30;;;;;;;1999.90;999.90;;;11.60;99.90;;;;;;5037304;28;20040;-68
2023/07/27 00:29:56;;;;;;;1999.90;999.90;;;11.60;99.90;;;;;;5031201;28;20558;-68
2023/07/27 00:32:22;;;;;;;1999.90;999.90;;;11.70;99.90;;;;;;5042608;28;20128;-69
2023/07/27 00:34:49;;;;;;;1999.90;999.90;;;11.70;99.90;;;;;;5030737;28;20401;-68
2023/07/27 00:37:15;;;;;;;1999.90;999.90;;;11.70;99.90;;;;;;5034406;28;20049;-68
2023/07/27 00:39:40;;;;;;;1999.90;999.90;;;11.80;99.90;;;;;;5029888;28;20485;-68
2023/07/27 00:42:06;;;;;;;1999.90;999.90;;;11.80;99.90;;;;;;5041224;28;20049;-69
2023/07/27 00:44:31;;;;;;;1999.90;999.90;;;11.80;99.90;;;;;;5051883;28;20040;-68
2023/07/27 00:46:58;;;;;;;1999.90;999.90;;;11.90;99.90;;;;;;5063751;28;20045;-68
2023/07/27 00:49:24;;;;;;;1999.90;999.90;;;11.90;99.90;;;;;;5030092;28;20044;-68
2023/07/27 00:51:50;;;;;;;1999.90;999.90;;;11.90;99.90;;;;;;5040827;28;20040;-68
2023/07/27 00:54:17;;;;;;;1999.90;999.90;;;11.90;99.90;;;;;;5044827;28;20045;-68
2023/07/27 00:56:43;;;;;;;1999.90;999.90;;;11.90;99.90;;;;;;5033683;28;20041;-69
2023/07/27 00:59:09;;;;;;;1999.90;999.90;;;11.90;99.90;;;;;;5042881;28;20481;-69
2023/07/27 01:01:34;;;;;;;1999.90;999.90;;;11.90;99.90;;;;;;5034299;28;20124;-68
2023/07/27 01:04:01;;;;;;;1999.90;999.90;;;11.90;99.90;;;;;;5048922;28;20060;-68
2023/07/27 01:06:27;;;;;;;1999.90;999.90;;;11.90;99.90;;;;;;5039869;28;20492;-69
2023/07/27 01:08:53;;;;;;;1999.90;999.90;;;11.90;99.90;;;;;;5028908;28;20117;-68
2023/07/27 01:11:51;;;;;;;1999.90;999.90;;;12.00;99.90;;;;;;5046685;28;20448;-68
2023/07/27 01:14:43;;;;;;;1999.90;999.90;;;12.00;99.90;;;;;;5046207;28;20469;-68
2023/07/27 01:17:19;;;;;;;1999.90;999.90;;;12.00;99.90;;;;;;5031888;28;20056;-69
2023/07/27 01:19:59;;;;;;;1999.90;999.90;;;12.00;99.90;;;;;;5047270;28;20048;-69
2023/07/27 01:22:31;;;;;;;1999.90;999.90;;;12.10;99.90;;;;;;5043024;28;20053;-68
2023/07/27 01:25:25;;;;;;;1999.90;999.90;;;12.10;99.90;;;;;;5036632;28;20053;-68
2023/07/27 01:28:15;;;;;;;1999.90;999.90;;;12.10;99.90;;;;;;5053801;28;20044;-69
2023/07/27 01:30:58;;;;;;;1999.90;999.90;;;12.10;99.90;;;;;;5044893;28;20045;-69
2023/07/27 01:33:31;;;;;;;1999.90;999.90;;;12.10;99.90;;;;;;5046582;28;20447;-68
2023/07/27 01:36:06;;;;;;;1999.90;999.90;;;12.10;99.90;;;;;;5036487;28;20386;-68
2023/07/27 01:38:34;;;;;;;1999.90;999.90;;;12.10;99.90;;;;;;5044137;28;20052;-68
2023/07/27 01:41:01;;;;;;;1999.90;999.90;;;12.10;99.90;;;;;;5040216;28;20052;-69
2023/07/27 01:43:28;;;;;;;1999.90;999.90;;;12.10;99.90;;;;;;5043598;28;20044;-69
2023/07/27 01:45:55;;;;;;;1999.90;999.90;;;12.10;99.90;;;;;;5024500;28;20040;-68
2023/07/27 01:48:23;;;;;;;1999.90;999.90;;;12.10;99.90;;;;;;5041985;28;20051;-68
2023/07/27 01:50:50;;;;;;;1999.90;999.90;;;12.10;99.90;;;;;;5044803;28;20388;-69
2023/07/27 01:53:18;;;;;;;1999.90;999.90;;;12.20;99.90;;;;;;5045041;28;20047;-69
2023/07/27 01:55:44;;;;;;;1999.90;999.90;;;12.10;99.90;;;;;;5044509;28;20060;-68
2023/07/27 01:58:10;;;;;;;1999.90;999.90;;;12.10;99.90;;;;;;5043987;28;20041;-68
2023/07/27 02:00:36;;;;;;;1999.90;999.90;;;12.20;99.90;;;;;;5020896;28;20118;-68
2023/07/27 02:03:02;;;;;;;1999.90;999.90;;;12.20;99.90;;;;;;5045920;28;20091;-68
2023/07/27 02:05:28;;;;;;;1999.90;999.90;;;12.20;99.90;;;;;;5043496;28;20048;-68
2023/07/27 02:07:53;;;;;;;1999.90;999.90;;;12.20;99.90;;;;;;5029020;28;20044;-68
2023/07/27 02:10:21;;;;;;;1999.90;999.90;;;12.20;99.90;;;;;;5046282;28;20512;-68
2023/07/27 02:12:59;;;;;;;1999.90;999.90;;;12.20;99.90;;;;;;5018148;28;21662;-69
2023/07/27 02:15:30;;;;;;;1999.90;999.90;;;12.30;99.90;;;;;;5041463;28;20046;-68
2023/07/27 02:18:18;;;;;;;1999.90;999.90;;;12.30;99.90;;;;;;5038382;28;20504;-68
2023/07/27 02:20:44;;;;;;;1999.90;999.90;;;12.30;99.90;;;;;;5039611;28;20409;-68
2023/07/27 02:23:11;;;;;;;1999.90;999.90;;;12.30;99.90;;;;;;5039298;28;20426;-68
2023/07/27 02:25:36;;;;;;;1999.90;999.90;;;12.40;99.90;;;;;;5039375;28;20596;-68
2023/07/27 02:28:02;;;;;;;1999.90;999.90;;;12.30;99.90;;;;;;5037225;28;20119;-68
2023/07/27 02:30:28;;;;;;;1999.90;999.90;;;12.40;99.90;;;;;;5046655;28;20452;-68
2023/07/27 02:32:54;;;;;;;1999.90;999.90;;;12.40;99.90;;;;;;5027480;28;20692;-68
2023/07/27 02:35:20;;;;;;;1999.90;999.90;;;12.40;99.90;;;;;;5043787;28;20040;-68
2023/07/27 02:37:45;;;;;;;1999.90;999.90;;;12.40;99.90;;;;;;5026521;28;20059;-68
2023/07/27 02:40:11;;;;;;;1999.90;999.90;;;12.50;99.90;;;;;;5040619;28;20059;-68
2023/07/27 02:42:37;;;;;;;1999.90;999.90;;;12.50;99.90;;;;;;5045484;28;20041;-68
2023/07/27 02:45:02;;;;;;;1999.90;999.90;;;12.50;99.90;;;;;;5032572;28;20389;-68
2023/07/27 02:47:28;;;;;;;1999.90;999.90;;;12.60;99.90;;;;;;5033494;28;20033;-68
2023/07/27 02:49:54;;;;;;;1999.90;999.90;;;12.60;99.90;;;;;;5039471;28;20479;-68
2023/07/27 02:52:19;;;;;;;1999.90;999.90;;;12.70;99.90;;;;;;5030517;28;20045;-68
2023/07/27 02:54:45;;;;;;;1999.90;999.90;;;12.70;99.90;;;;;;5042283;28;20651;-68
2023/07/27 02:57:10;;;;;;;1999.90;999.90;;;12.70;99.90;;;;;;5038393;28;20041;-69
2023/07/27 02:59:36;;;;;;;1999.90;999.90;;;12.70;99.90;;;;;;5020228;28;20124;-68
2023/07/27 03:02:01;;;;;;;1999.90;999.90;;;12.80;99.90;;;;;;5024803;28;20482;-69
2023/07/27 03:04:27;;;;;;;1999.90;999.90;;;12.80;99.90;;;;;;5028615;28;20047;-68
2023/07/27 03:06:52;;;;;;;1999.90;999.90;;;12.80;99.90;;;;;;5049131;28;20111;-68
2023/07/27 03:09:18;;;;;;;1999.90;999.90;;;12.80;99.90;;;;;;5037806;28;20786;-68
2023/07/27 03:11:44;;;;;;;1999.90;999.90;;;12.90;99.90;;;;;;5049163;28;20072;-68
2023/07/27 03:14:09;;;;;;;1999.90;999.90;;;12.90;99.90;;;;;;5047895;28;20048;-69
2023/07/27 03:16:35;;;;;;;1999.90;999.90;;;12.90;99.90;;;;;;5038627;28;20053;-68
2023/07/27 03:19:00;;;;;;;1999.90;999.90;;;12.90;99.90;;;;;;5048185;28;20497;-68
2023/07/27 03:21:26;;;;;;;1999.90;999.90;;;13.00;99.90;;;;;;5026937;28;20359;-68
2023/07/27 03:23:52;;;;;;;1999.90;999.90;;;13.00;99.90;;;;;;5054650;28;20385;-68
2023/07/27 03:26:18;;;;;;;1999.90;999.90;;;13.00;99.90;;;;;;5043760;28;20040;-69
2023/07/27 03:28:43;;;;;;;1999.90;999.90;;;13.00;99.90;;;;;;5028098;28;20045;-68
2023/07/27 03:31:22;;;;;;;1999.90;999.90;;;13.00;99.90;;;;;;5046108;28;20041;-68
2023/07/27 03:33:48;;;;;;;1999.90;999.90;;;13.10;99.90;;;;;;5046976;28;20072;-69
2023/07/27 03:36:15;;;;;;;1999.90;999.90;;;13.10;99.90;;;;;;5050336;28;20051;-68
2023/07/27 03:38:41;;;;;;;1999.90;999.90;;;13.10;99.90;;;;;;5030754;28;20391;-69
2023/07/27 03:41:07;;;;;;;1999.90;999.90;;;13.10;99.90;;;;;;5045949;28;20045;-68
2023/07/27 03:43:32;;;;;;;1999.90;999.90;;;13.10;99.90;;;;;;5042407;28;20043;-68
2023/07/27 03:45:58;;;;;;;1999.90;999.90;;;13.10;99.90;;;;;;5051928;28;20045;-68
2023/07/27 03:48:25;;;;;;;1999.90;999.90;;;13.10;99.90;;;;;;5041759;28;20046;-68
2023/07/27 03:50:52;;;;;;;1999.90;999.90;;;13.20;99.90;;;;;;5029162;28;20040;-68
2023/07/27 03:53:18;;;;;;;1999.90;999.90;;;13.20;99.90;;;;;;5046820;28;20047;-68
2023/07/27 03:55:43;;;;;;;1999.90;999.90;;;13.20;99.90;;;;;;5022329;28;20482;-68
2023/07/27 03:58:09;;;;;;;1999.90;999.90;;;13.20;99.90;;;;;;5042843;28;20051;-68
2023/07/27 04:00:34;;;;;;;1999.90;999.90;;;13.20;99.90;;;;;;5045428;28;20049;-68
2023/07/27 04:03:00;;;;;;;1999.90;999.90;;;13.20;99.90;;;;;;5029895;28;20032;-68
2023/07/27 04:05:25;;;;;;;1999.90;999.90;;;13.20;99.90;;;;;;5048141;28;20567;-68
2023/07/27 04:07:52;;;;;;;1999.90;999.90;;;13.20;99.90;;;;;;5041998;28;20041;-68
2023/07/27 04:10:18;;;;;;;1999.90;999.90;;;13.20;99.90;;;;;;5022021;28;20029;-69
2023/07/27 04:12:44;;;;;;;1999.90;999.90;;;13.30;99.90;;;;;;5047527;28;20515;-68
2023/07/27 04:15:10;;;;;;;1999.90;999.90;;;13.30;99.90;;;;;;5023433;28;20036;-68
2023/07/27 04:17:36;;;;;;;1999.90;999.90;;;13.30;99.90;;;;;;5044014;28;20503;-68
2023/07/27 04:20:02;;;;;;;1999.90;999.90;;;13.30;99.90;;;;;;5048725;28;20127;-68
2023/07/27 04:22:28;;;;;;;1999.90;999.90;;;13.30;99.90;;;;;;5040837;28;20052;-69
2023/07/27 04:24:53;;;;;;;1999.90;999.90;;;13.30;99.90;;;;;;5035773;28;20040;-69
2023/07/27 04:27:19;;;;;;;1999.90;999.90;;;13.30;99.90;;;;;;5024963;28;20087;-69
2023/07/27 04:29:45;;;;;;;1999.90;999.90;;;13.30;99.90;;;;;;5054569;28;20041;-69
2023/07/27 04:32:10;;;;;;;1999.90;999.90;;;13.30;99.90;;;;;;5041514;28;20036;-69
2023/07/27 04:34:36;;;;;;;1999.90;999.90;;;13.30;99.90;;;;;;5022030;28;20045;-69
2023/07/27 04:37:02;;;;;;;1999.90;999.90;;;13.30;99.90;;;;;;5043901;28;20041;-69
2023/07/27 04:39:28;;;;;;;1999.90;999.90;;;13.30;99.90;;;;;;5038374;28;20067;-69
2023/07/27 04:41:53;;;;;;;1999.90;999.90;;;13.30;99.90;;;;;;5016471;28;20040;-69
2023/07/27 04:44:19;;;;;;;1999.90;999.90;;;13.30;99.90;;;;;;5046566;28;20052;-69
2023/07/27 04:46:45;;;;;;;1999.90;999.90;;;13.30;99.90;;;;;;5044880;28;20124;-69
2023/07/27 04:49:10;;;;;;;1999.90;999.90;;;13.40;99.90;;;;;;5042863;28;20044;-69
2023/07/27 04:51:36;;;;;;;1999.90;999.90;;;13.40;99.90;;;;;;5044758;28;20511;-69
2023/07/27 04:54:02;;;;;;;1999.90;999.90;;;13.30;99.90;;;;;;5042478;28;20512;-69
2023/07/27 04:56:28;;;;;;;1999.90;999.90;;;13.40;99.90;;;;;;5047068;28;20386;-69
2023/07/27 04:58:54;;;;;;;1999.90;999.90;;;13.40;99.90;;;;;;5043528;28;20076;-69
2023/07/27 05:01:20;;;;;;;1999.90;999.90;;;13.40;99.90;;;;;;5042769;28;20415;-69
2023/07/27 05:03:45;;;;;;;1999.90;999.90;;;13.40;99.90;;;;;;5043414;28;20144;-69
2023/07/27 05:06:11;;;;;;;1999.90;999.90;;;13.30;99.90;;;;;;5029139;28;20041;-69
2023/07/27 05:08:36;;;;;;;1999.90;999.90;;;13.40;99.90;;;;;;5043581;28;20558;-69
2023/07/27 05:11:03;;;;;;;1999.90;999.90;;;13.40;99.90;;;;;;5047781;28;20109;-69
2023/07/27 05:13:29;;;;;;;1999.90;999.90;;;13.40;99.90;;;;;;5063676;28;20128;-69
2023/07/27 05:15:55;;;;;;;1999.90;999.90;;;13.40;99.90;;;;;;5047811;28;20041;-69
2023/07/27 05:18:20;;;;;;;1999.90;999.90;;;13.50;99.90;;;;;;5046190;28;20041;-68
2023/07/27 05:20:46;;;;;;;1999.90;999.90;;;13.50;99.90;;;;;;5034483;28;20057;-69
2023/07/27 05:23:12;;;;;;;1999.90;999.90;;;13.50;99.90;;;;;;5015953;28;20482;-69
2023/07/27 05:25:37;;;;;;;1999.90;999.90;;;13.50;99.90;;;;;;5042660;28;20053;-69
2023/07/27 05:28:03;;;;;;;1999.90;999.90;;;13.60;99.90;;;;;;5062913;28;20041;-69
2023/07/27 05:30:29;;;;;;;1999.90;999.90;;;13.60;99.90;;;;;;5045999;28;20088;-69
2023/07/27 05:32:54;;;;;;;1999.90;999.90;;;13.60;99.90;;;;;;5044061;28;20052;-69
2023/07/27 05:35:20;;;;;;;1999.90;999.90;;;13.60;99.90;;;;;;5045509;28;20516;-69
2023/07/27 05:37:46;;;;;;;1999.90;999.90;;;13.60;99.90;;;;;;5042618;28;20090;-69
2023/07/27 05:40:15;;;;;;;1999.90;999.90;;;13.60;99.90;;;;;;5057703;28;20045;-69
2023/07/27 05:42:42;;;;;;;1999.90;999.90;;;13.70;99.90;;;;;;5045924;28;20063;-69
2023/07/27 05:45:08;;;;;;;1999.90;999.90;;;13.70;99.90;;;;;;5044682;28;20363;-68
2023/07/27 05:47:34;;;;;;;1999.90;999.90;;;13.70;99.90;;;;;;5045951;28;20037;-69
2023/07/27 05:49:59;;;;;;;1999.90;999.90;;;13.70;99.90;;;;;;5034291;28;20036;-69
2023/07/27 05:52:25;;;;;;;1999.90;999.90;;;13.70;99.90;;;;;;5020576;28;20041;-69
2023/07/27 05:54:51;;;;;;;1999.90;999.90;;;13.80;99.90;;;;;;5045524;28;20045;-69
2023/07/27 05:57:17;;;;;;;1999.90;999.90;;;13.70;99.90;;;;;;5045229;28;20524;-69
2023/07/27 05:59:42;;;;;;;1999.90;999.90;;;13.80;99.90;;;;;;5048989;28;20041;-69
2023/07/27 06:02:08;;;;;;;1999.90;999.90;;;13.80;99.90;;;;;;5037988;28;20108;-69
2023/07/27 06:04:34;;;;;;;1999.90;999.90;;;13.80;99.90;;;;;;5046446;28;20056;-69
2023/07/27 06:07:00;;;;;;;1999.90;999.90;;;13.90;99.90;;;;;;5045330;28;20132;-69
2023/07/27 06:09:26;;;;;;;1999.90;999.90;;;13.90;99.90;;;;;;5026154;28;20040;-69
2023/07/27 06:11:52;;;;;;;1999.90;999.90;;;14.00;99.90;;;;;;5039533;28;20037;-69
2023/07/27 06:14:18;;;;;;;1999.90;999.90;;;14.10;99.90;;;;;;5018776;28;20045;-69
2023/07/27 06:16:44;;;;;;;1999.90;999.90;;;14.20;99.90;;;;;;5058977;28;20064;-69
2023/07/27 06:19:10;;;;;;;1999.90;999.90;;;14.40;99.90;;;;;;5038321;28;20044;-69
2023/07/27 06:21:36;;;;;;;1999.90;999.90;;;14.50;99.90;;;;;;5044744;28;20047;-69
2023/07/27 06:24:01;;;;;;;1999.90;999.90;;;14.70;99.90;;;;;;5036894;28;20525;-70
2023/07/27 06:26:27;;;;;;;1999.90;999.90;;;14.90;99.90;;;;;;5045842;28;20120;-69
2023/07/27 06:28:53;;;;;;;1999.90;999.90;;;15.00;99.90;;;;;;5041882;28;20036;-70
2023/07/27 06:31:19;;;;;;;1999.90;999.90;;;15.10;99.90;;;;;;5041174;28;20521;-69
2023/07/27 06:33:44;;;;;;;1999.90;999.90;;;15.20;99.90;;;;;;5027314;28;20051;-69
2023/07/27 06:36:14;;;;;;;1999.90;999.90;;;15.20;99.90;;;;;;5048795;28;20072;-69
2023/07/27 06:38:40;;;;;;;1999.90;999.90;;;15.20;99.90;;;;;;5036640;28;20052;-69
2023/07/27 06:41:05;;;;;;;1999.90;999.90;;;15.20;99.90;;;;;;5046885;28;20511;-69
2023/07/27 06:43:32;;;;;;;1999.90;999.90;;;15.20;99.90;;;;;;5020582;28;20045;-70
2023/07/27 06:45:57;;;;;;;1999.90;999.90;;;15.30;99.90;;;;;;5041847;28;20456;-69
2023/07/27 06:48:23;;;;;;;1999.90;999.90;;;15.30;99.90;;;;;;5041913;28;20116;-70
2023/07/27 06:50:49;;;;;;;1999.90;999.90;;;15.40;99.90;;;;;;5049544;28;20452;-70
2023/07/27 06:53:14;;;;;;;1999.90;999.90;;;15.50;99.90;;;;;;5042928;28;20040;-70
2023/07/27 06:55:40;;;;;;;1999.90;999.90;;;15.50;99.90;;;;;;5048492;28;20116;-70
2023/07/27 06:58:05;;;;;;;1999.90;999.90;;;15.40;99.90;;;;;;5025407;28;20043;-70
2023/07/27 07:00:34;;;;;;;1999.90;999.90;;;15.50;99.90;;;;;;5049658;28;20045;-69
2023/07/27 07:02:59;;;;;;;1999.90;999.90;;;15.50;99.90;;;;;;5037297;28;20076;-70
2023/07/27 07:05:25;;;;;;;1999.90;999.90;;;15.50;99.90;;;;;;5040944;28;20820;-70
2023/07/27 07:07:51;;;;;;;1999.90;999.90;;;15.50;99.90;;;;;;5048165;28;20748;-69
2023/07/27 07:10:18;;;;;;;1999.90;999.90;;;15.50;99.90;;;;;;5044554;28;20151;-70
2023/07/27 07:12:44;;;;;;;1999.90;999.90;;;15.50;99.90;;;;;;5023068;28;20126;-69
2023/07/27 07:15:10;;;;;;;1999.90;999.90;;;15.40;99.90;;;;;;5046066;28;20533;-69
2023/07/27 07:17:36;;;;;;;1999.90;999.90;;;15.40;99.90;;;;;;5049777;28;20068;-69
2023/07/27 07:20:05;;;;;;;1999.90;999.90;;;15.30;99.90;;;;;;5050582;28;20041;-70
2023/07/27 07:22:32;;;;;;;1999.90;999.90;;;15.30;99.90;;;;;;5048915;28;20045;-70
2023/07/27 07:24:58;;;;;;;1999.90;999.90;;;15.30;99.90;;;;;;5047654;28;20037;-70
2023/07/27 07:27:23;;;;;;;1999.90;999.90;;;15.30;99.90;;;;;;5022037;28;20044;-70
2023/07/27 07:29:49;;;;;;;1999.90;999.90;;;15.40;99.90;;;;;;5029912;28;20098;-69
2023/07/27 07:32:15;;;;;;;1999.90;999.90;;;15.40;99.90;;;;;;5035406;28;20080;-70
2023/07/27 07:34:40;;;;;;;1999.90;999.90;;;15.50;99.90;;;;;;5040540;28;20037;-70
2023/07/27 07:37:06;;;;;;;1999.90;999.90;;;15.60;99.90;;;;;;5044063;28;20651;-69
2023/07/27 07:39:31;;;;;;;1999.90;999.90;;;15.70;99.90;;;;;;5042508;28;20390;-69
2023/07/27 07:41:58;;;;;;;1999.90;999.90;;;15.80;99.90;;;;;;5040907;28;20489;-70
2023/07/27 07:44:24;;;;;;;1999.90;999.90;;;15.90;99.90;;;;;;5040160;28;20131;-70
2023/07/27 07:46:50;;;;;;;1999.90;999.90;;;15.90;99.90;;;;;;5043128;28;20507;-70
2023/07/27 07:49:16;;;;;;;1999.90;999.90;;;16.00;99.90;;;;;;5047960;28;20045;-69
2023/07/27 07:51:41;;;;;;;1999.90;999.90;;;16.10;99.90;;;;;;5048231;28;20844;-69
2023/07/27 07:54:09;;;;;;;1999.90;999.90;;;16.20;99.90;;;;;;5046695;28;20416;-70
2023/07/27 07:56:35;;;;;;;1999.90;999.90;;;16.30;99.90;;;;;;5041401;28;20150;-69
2023/07/27 07:59:01;;;;;;;1999.90;999.90;;;16.60;99.90;;;;;;5043798;28;20041;-69
2023/07/27 08:01:27;;;;;;;1999.90;999.90;;;16.90;99.90;;;;;;5046482;28;20052;-69
2023/07/27 08:03:52;;;;;;;1999.90;999.90;;;17.10;99.90;;;;;;5040485;28;20088;-69
2023/07/27 08:06:18;;;;;;;1999.90;999.90;;;17.30;99.90;;;;;;5037976;28;20049;-69
2023/07/27 08:08:45;;;;;;;1999.90;999.90;;;17.30;99.90;;;;;;5040320;28;20472;-69
2023/07/27 08:11:10;;;;;;;1999.90;999.90;;;17.10;99.90;;;;;;5045132;28;20037;-69
2023/07/27 08:13:36;;;;;;;1999.90;999.90;;;17.00;99.90;;;;;;5041419;28;20067;-69
2023/07/27 08:16:03;;;;;;;1999.90;999.90;;;16.90;99.90;;;;;;5047342;28;20056;-68
2023/07/27 08:18:29;;;;;;;1999.90;999.90;;;16.90;99.90;;;;;;5046677;28;20039;-68
2023/07/27 08:21:00;;;;;;;1999.90;999.90;;;16.80;99.90;;;;;;5021527;28;20052;-68
2023/07/27 08:23:26;;;;;;;1999.90;999.90;;;16.80;99.90;;;;;;5035029;28;20037;-68
2023/07/27 08:25:53;;;;;;;1999.90;999.90;;;16.80;99.90;;;;;;5033977;28;20498;-69
2023/07/27 08:28:20;;;;;;;1999.90;999.90;;;16.80;99.90;;;;;;5022677;28;20358;-69
2023/07/27 08:30:46;;;;;;;1999.90;999.90;;;16.80;99.90;;;;;;5046815;28;20123;-69
2023/07/27 08:33:12;;;;;;;1999.90;999.90;;;16.70;99.90;;;;;;5044439;28;20128;-69
2023/07/27 08:35:39;;;;;;;1999.90;999.90;;;16.70;99.90;;;;;;5040415;28;20048;-68
2023/07/27 08:38:05;;;;;;;1999.90;999.90;;;16.70;99.90;;;;;;5039649;28;20404;-68
2023/07/27 08:40:31;;;;;;;1999.90;999.90;;;16.60;99.90;;;;;;5028420;28;20041;-68
2023/07/27 08:42:57;;;;;;;1999.90;999.90;;;16.40;99.90;;;;;;5046219;28;20025;-68
2023/07/27 08:45:23;;;;;;;1999.90;999.90;;;16.40;99.90;;;;;;5042895;28;20036;-68
2023/07/27 08:47:49;;;;;;;1999.90;999.90;;;16.40;99.90;;;;;;5027017;28;20047;-68
2023/07/27 08:50:15;;;;;;;1999.90;999.90;;;16.40;99.90;;;;;;5039587;28;20128;-68
2023/07/27 08:52:41;;;;;;;1999.90;999.90;;;16.40;99.90;;;;;;5019726;28;20041;-68
2023/07/27 08:55:07;;;;;;;1999.90;999.90;;;16.60;99.90;;;;;;5029973;28;20083;-68
2023/07/27 08:57:33;;;;;;;1999.90;999.90;;;16.60;99.90;;;;;;5016796;28;21165;-68
2023/07/27 08:59:58;;;;;;;1999.90;999.90;;;16.80;99.90;;;;;;5037557;28;20037;-68
2023/07/27 09:02:24;;;;;;;1999.90;999.90;;;16.90;99.90;;;;;;5026312;28;20041;-68
2023/07/27 09:04:50;;;;;;;1999.90;999.90;;;17.00;99.90;;;;;;5048256;28;20473;-68
2023/07/27 09:07:15;;;;;;;1999.90;999.90;;;17.10;99.90;;;;;;5039624;28;20045;-68
2023/07/27 09:09:41;;;;;;;1999.90;999.90;;;17.20;99.90;;;;;;5029680;28;20041;-68
2023/07/27 09:12:07;;;;;;;1999.90;999.90;;;17.20;99.90;;;;;;5015534;28;20414;-68
2023/07/27 09:14:37;;;;;;;1999.90;999.90;;;17.20;99.90;;;;;;5046377;28;20415;-68
2023/07/27 09:17:03;;;;;;;1999.90;999.90;;;17.30;99.90;;;;;;5049923;28;20123;-68
2023/07/27 09:19:36;;;;;;;1999.90;999.90;;;17.30;99.90;;;;;;5038383;28;20072;-68
2023/07/27 09:22:02;;;;;;;1999.90;999.90;;;17.40;99.90;;;;;;5049817;28;20047;-68
2023/07/27 09:24:32;;;;;;;1999.90;999.90;;;17.40;99.90;;;;;;5053709;28;20480;-68
2023/07/27 09:26:57;;;;;;;1999.90;999.90;;;17.50;99.90;;;;;;5049309;28;20087;-68
2023/07/27 09:29:23;;;;;;;1999.90;999.90;;;17.50;99.90;;;;;;5035514;28;20049;-68
2023/07/27 09:31:51;;;;;;;1999.90;999.90;;;17.50;99.90;;;;;;5043995;28;20489;-68
2023/07/27 09:34:18;;;;;;;1999.90;999.90;;;17.50;99.90;;;;;;5028537;28;20452;-68
2023/07/27 09:36:44;;;;;;;1999.90;999.90;;;17.50;99.90;;;;;;5045471;28;20049;-68
2023/07/27 09:39:10;;;;;;;1999.90;999.90;;;17.40;99.90;;;;;;5045574;28;20041;-68
2023/07/27 09:41:43;;;;;;;1999.90;999.90;;;17.30;99.90;;;;;;5049482;28;20090;-68
2023/07/27 09:44:13;;;;;;;1999.90;999.90;;;17.20;99.90;;;;;;5040140;28;20135;-68
2023/07/27 09:46:39;;;;;;;1999.90;999.90;;;17.10;99.90;;;;;;5028545;28;20063;-68
2023/07/27 09:49:06;;;;;;;1999.90;999.90;;;17.00;99.90;;;;;;5041311;28;20032;-68
2023/07/27 09:51:33;;;;;;;1999.90;999.90;;;17.00;99.90;;;;;;5039366;28;20610;-68
2023/07/27 09:53:59;;;;;;;1999.90;999.90;;;17.00;99.90;;;;;;5039533;28;20044;-69
2023/07/27 09:56:27;;;;;;;1999.90;999.90;;;17.00;99.90;;;;;;5036085;28;20183;-69
2023/07/27 09:58:53;;;;;;;1999.90;999.90;;;17.10;99.90;;;;;;5041524;28;20053;-68
2023/07/27 10:01:19;;;;;;;1999.90;999.90;;;17.10;99.90;;;;;;5034708;28;20409;-69
2023/07/27 10:03:45;;;;;;;1999.90;999.90;;;17.20;99.90;;;;;;5041830;28;20029;-68
2023/07/27 10:06:16;;;;;;;1999.90;999.90;;;17.20;99.90;;;;;;5040536;28;20095;-69
2023/07/27 10:08:42;;;;;;;1999.90;999.90;;;17.30;99.90;;;;;;5041381;28;20087;-68
2023/07/27 10:11:08;;;;;;;1999.90;999.90;;;17.40;99.90;;;;;;5035413;28;20068;-69
2023/07/27 10:13:43;;;;;;;1999.90;999.90;;;17.30;99.90;;;;;;5034560;28;20509;-69
2023/07/27 10:16:11;;;;;;;1999.90;999.90;;;17.30;99.90;;;;;;5042360;28;20044;-69
2023/07/27 10:18:42;;;;;;;1999.90;999.90;;;17.20;99.90;;;;;;5042896;28;20041;-68
2023/07/27 10:21:27;;;;;;;1999.90;999.90;;;17.20;99.90;;;;;;5035844;28;20151;-69
2023/07/27 10:24:00;;;;;;;1999.90;999.90;;;17.40;99.90;;;;;;5044334;28;20044;-69
2023/07/27 10:26:46;;;;;;;1999.90;999.90;;;17.40;99.90;;;;;;5032611;28;20042;-68
2023/07/27 10:29:16;;;;;;;1999.90;999.90;;;17.60;99.90;;;;;;5027535;28;20048;-69
2023/07/27 10:31:44;;;;;;;1999.90;999.90;;;17.70;99.90;;;;;;5029616;28;23974;-69
2023/07/27 10:34:16;;;;;;;1999.90;999.90;;;17.70;99.90;;;;;;5020736;28;20048;-68
2023/07/27 10:36:52;;;;;;;1999.90;999.90;;;17.70;99.90;;;;;;5032892;28;20383;-69
2023/07/27 10:39:23;;;;;;;1999.90;999.90;;;17.70;99.90;;;;;;5044386;28;20061;-69
2023/07/27 10:42:07;;;;;;;1999.90;999.90;;;17.60;99.90;;;;;;5028758;28;20057;-68
2023/07/27 10:44:46;;;;;;;1999.90;999.90;;;17.50;99.90;;;;;;5021828;28;20059;-69
2023/07/27 10:47:15;;;;;;;1999.90;999.90;;;17.60;99.90;;;;;;5044292;28;20052;-69
2023/07/27 10:49:45;;;;;;;1999.90;999.90;;;17.70;99.90;;;;;;5045547;28;20040;-69
2023/07/27 10:52:24;;;;;;;1999.90;999.90;;;17.80;99.90;;;;;;5039073;28;20055;-69
2023/07/27 10:54:51;;;;;;;1999.90;999.90;;;17.80;99.90;;;;;;5024420;28;20091;-69
2023/07/27 10:57:18;;;;;;;1999.90;999.90;;;17.80;99.90;;;;;;5017699;28;20052;-69
2023/07/27 10:59:51;;;;;;;1999.90;999.90;;;17.70;99.90;;;;;;5039315;28;20147;-69
2023/07/27 11:02:21;;;;;;;1999.90;999.90;;;17.70;99.90;;;;;;5027744;28;20086;-69
2023/07/27 11:04:57;;;;;;;1999.90;999.90;;;17.70;99.90;;;;;;5043318;28;20041;-69
2023/07/27 11:07:33;;;;;;;1999.90;999.90;;;17.60;99.90;;;;;;5045084;28;20120;-69
2023/07/27 11:10:09;;;;;;;1999.90;999.90;;;17.50;99.90;;;;;;5025187;28;20494;-69
2023/07/27 11:12:52;;;;;;;1999.90;999.90;;;17.50;99.90;;;;;;5044063;28;20119;-69
2023/07/27 11:15:23;;;;;;;1999.90;999.90;;;17.50;99.90;;;;;;5039793;28;20049;-69
2023/07/27 11:17:50;;;;;;;1999.90;999.90;;;17.50;99.90;;;;;;5043874;28;20072;-68
2023/07/27 11:20:21;;;;;;;1999.90;999.90;;;17.60;99.90;;;;;;5040331;28;20053;-68
2023/07/27 11:22:48;;;;;;;1999.90;999.90;;;17.60;99.90;;;;;;5031285;28;20033;-68
2023/07/27 11:25:14;;;;;;;1999.90;999.90;;;17.60;99.90;;;;;;5045083;28;20041;-68
2023/07/27 11:27:40;;;;;;;1999.90;999.90;;;17.70;99.90;;;;;;5042351;28;20041;-68
2023/07/27 11:30:11;;;;;;;1999.90;999.90;;;17.80;99.90;;;;;;5027509;28;20452;-68
2023/07/27 11:32:37;;;;;;;1999.90;999.90;;;17.80;99.90;;;;;;5033413;28;20175;-68
2023/07/27 11:35:02;;;;;;;1999.90;999.90;;;17.90;99.90;;;;;;5046176;28;20155;-68
2023/07/27 11:37:32;;;;;;;1999.90;999.90;;;18.00;99.90;;;;;;5046658;28;20040;-68
2023/07/27 11:39:58;;;;;;;1999.90;999.90;;;18.10;99.90;;;;;;5036969;28;20053;-68
2023/07/27 11:42:35;;;;;;;1999.90;999.90;;;18.20;99.90;;;;;;5038068;28;20041;-68
2023/07/27 11:45:02;;;;;;;1999.90;999.90;;;18.30;99.90;;;;;;5044820;28;20033;-68
2023/07/27 11:47:36;;;;;;;1999.90;999.90;;;18.30;99.90;;;;;;5025688;28;20116;-68
2023/07/27 11:50:03;;;;;;;1999.90;999.90;;;18.40;99.90;;;;;;5039113;28;20119;-68
2023/07/27 11:52:28;;;;;;;1999.90;999.90;;;18.40;99.90;;;;;;5039895;28;20465;-68
2023/07/27 11:54:55;;;;;;;1999.90;999.90;;;18.40;99.90;;;;;;5016971;28;20043;-68
2023/07/27 11:57:25;;;;;;;1999.90;999.90;;;18.40;99.90;;;;;;5034606;28;20049;-68
2023/07/27 12:00:01;;;;;;;1999.90;999.90;;;18.50;99.90;;;;;;5031934;28;20051;-68